sensor_id;sensor_type;location;lat;lon;timestamp;temperature;humidity
51615;DHT22;37695;52.960;6.188;2023-03-05T00:00:43;3.50;99.90
51615;DHT22;37695;52.960;6.188;2023-03-05T00:03:08;3.50;99.90
51615;DHT22;37695;52.960;6.188;2023-03-05T00:05:34;3.50;99.90
51615;DHT22;37695;52.960;6.188;2023-03-05T00:08:00;3.50;99.90
51615;DHT22;37695;52.960;6.188;2023-03-05T00:10:25;3.40;99.90
51615;DHT22;37695;52.960;6.188;2023-03-05T00:12:52;3.50;99.90
51615;DHT22;37695;52.960;6.188;2023-03-05T00:15:17;3.40;99.90
51615;DHT22;37695;52.960;6.188;2023-03-05T00:17:43;3.50;99.90
51615;DHT22;37695;52.960;6.188;2023-03-05T00:20:09;3.50;99.90
51615;DHT22;37695;52.960;6.188;2023-03-05T00:22:35;3.50;99.90
51615;DHT22;37695;52.960;6.188;2023-03-05T00:25:01;3.50;99.90
51615;DHT22;37695;52.960;6.188;2023-03-05T00:27:26;3.50;99.90
51615;DHT22;37695;52.960;6.188;2023-03-05T00:29:52;3.50;99.90
51615;DHT22;37695;52.960;6.188;2023-03-05T00:32:17;3.50;99.90
51615;DHT22;37695;52.960;6.188;2023-03-05T00:34:43;3.40;99.90
51615;DHT22;37695;52.960;6.188;2023-03-05T00:37:08;3.40;99.90
51615;DHT22;37695;52.960;6.188;2023-03-05T00:39:34;3.40;99.90
51615;DHT22;37695;52.960;6.188;2023-03-05T00:41:59;3.50;99.90
51615;DHT22;37695;52.960;6.188;2023-03-05T00:44:25;3.50;99.90
51615;DHT22;37695;52.960;6.188;2023-03-05T00:46:50;3.50;99.90
51615;DHT22;37695;52.960;6.188;2023-03-05T00:49:16;3.50;99.90
51615;DHT22;37695;52.960;6.188;2023-03-05T00:51:42;3.50;99.90
51615;DHT22;37695;52.960;6.188;2023-03-05T00:54:07;3.60;99.90
51615;DHT22;37695;52.960;6.188;2023-03-05T00:56:33;3.60;99.90
51615;DHT22;37695;52.960;6.188;2023-03-05T00:58:58;3.60;99.90
51615;DHT22;37695;52.960;6.188;2023-03-05T01:01:24;3.60;99.90
51615;DHT22;37695;52.960;6.188;2023-03-05T01:03:51;3.60;99.90
51615;DHT22;37695;52.960;6.188;2023-03-05T01:06:16;3.60;99.90
51615;DHT22;37695;52.960;6.188;2023-03-05T01:08:43;3.60;99.90
51615;DHT22;37695;52.960;6.188;2023-03-05T01:11:10;3.60;99.90
51615;DHT22;37695;52.960;6.188;2023-03-05T01:13:36;3.60;99.90
51615;DHT22;37695;52.960;6.188;2023-03-05T01:16:02;3.60;99.90
51615;DHT22;37695;52.960;6.188;2023-03-05T01:18:28;3.60;99.90
51615;DHT22;37695;52.960;6.188;2023-03-05T01:20:54;3.50;99.90
51615;DHT22;37695;52.960;6.188;2023-03-05T01:23:19;3.50;99.90
51615;DHT22;37695;52.960;6.188;2023-03-05T01:25:45;3.50;99.90
51615;DHT22;37695;52.960;6.188;2023-03-05T01:28:16;3.50;99.90
51615;DHT22;37695;52.960;6.188;2023-03-05T01:30:42;3.40;99.90
51615;DHT22;37695;52.960;6.188;2023-03-05T01:33:07;3.40;99.90
51615;DHT22;37695;52.960;6.188;2023-03-05T01:35:33;3.40;99.90
51615;DHT22;37695;52.960;6.188;2023-03-05T01:37:58;3.40;99.90
51615;DHT22;37695;52.960;6.188;2023-03-05T01:40:27;3.40;99.90
51615;DHT22;37695;52.960;6.188;2023-03-05T01:43:07;3.40;99.90
51615;DHT22;37695;52.960;6.188;2023-03-05T01:48:46;3.40;99.90
51615;DHT22;37695;52.960;6.188;2023-03-05T01:51:16;3.40;99.90
51615;DHT22;37695;52.960;6.188;2023-03-05T01:53:43;3.40;99.90
51615;DHT22;37695;52.960;6.188;2023-03-05T01:56:09;3.30;99.90
51615;DHT22;37695;52.960;6.188;2023-03-05T01:58:35;3.30;99.90
51615;DHT22;37695;52.960;6.188;2023-03-05T02:01:01;3.30;99.90
51615;DHT22;37695;52.960;6.188;2023-03-05T02:03:27;3.30;99.90
51615;DHT22;37695;52.960;6.188;2023-03-05T02:05:52;3.30;99.90
51615;DHT22;37695;52.960;6.188;2023-03-05T02:08:20;3.20;99.90
51615;DHT22;37695;52.960;6.188;2023-03-05T02:10:51;3.20;99.90
51615;DHT22;37695;52.960;6.188;2023-03-05T02:13:20;3.20;99.90
51615;DHT22;37695;52.960;6.188;2023-03-05T02:15:47;3.20;99.90
51615;DHT22;37695;52.960;6.188;2023-03-05T02:18:15;3.20;99.90
51615;DHT22;37695;52.960;6.188;2023-03-05T02:23:24;3.20;99.90
51615;DHT22;37695;52.960;6.188;2023-03-05T02:25:50;3.30;99.90
51615;DHT22;37695;52.960;6.188;2023-03-05T02:28:29;3.40;99.90
51615;DHT22;37695;52.960;6.188;2023-03-05T02:30:55;3.40;99.90
51615;DHT22;37695;52.960;6.188;2023-03-05T02:33:21;3.40;99.90
51615;DHT22;37695;52.960;6.188;2023-03-05T02:35:47;3.40;99.90
51615;DHT22;37695;52.960;6.188;2023-03-05T02:38:14;3.30;99.90
51615;DHT22;37695;52.960;6.188;2023-03-05T02:40:40;3.30;99.90
51615;DHT22;37695;52.960;6.188;2023-03-05T02:43:05;3.30;99.90
51615;DHT22;37695;52.960;6.188;2023-03-05T02:45:31;3.20;99.90
51615;DHT22;37695;52.960;6.188;2023-03-05T02:47:57;3.20;99.90
51615;DHT22;37695;52.960;6.188;2023-03-05T02:50:22;3.20;99.90
51615;DHT22;37695;52.960;6.188;2023-03-05T02:52:49;3.30;99.90
51615;DHT22;37695;52.960;6.188;2023-03-05T02:55:15;3.30;99.90
51615;DHT22;37695;52.960;6.188;2023-03-05T02:57:40;3.30;99.90
51615;DHT22;37695;52.960;6.188;2023-03-05T03:00:06;3.30;99.90
51615;DHT22;37695;52.960;6.188;2023-03-05T03:02:32;3.30;99.90
51615;DHT22;37695;52.960;6.188;2023-03-05T03:04:58;3.20;99.90
51615;DHT22;37695;52.960;6.188;2023-03-05T03:07:24;3.20;99.90
51615;DHT22;37695;52.960;6.188;2023-03-05T03:09:49;3.10;99.90
51615;DHT22;37695;52.960;6.188;2023-03-05T03:12:15;3.10;99.90
51615;DHT22;37695;52.960;6.188;2023-03-05T03:14:41;3.10;99.90
51615;DHT22;37695;52.960;6.188;2023-03-05T03:17:09;3.00;99.90
51615;DHT22;37695;52.960;6.188;2023-03-05T03:19:36;3.00;99.90
51615;DHT22;37695;52.960;6.188;2023-03-05T03:22:02;2.90;99.90
51615;DHT22;37695;52.960;6.188;2023-03-05T03:24:31;2.90;99.90
51615;DHT22;37695;52.960;6.188;2023-03-05T03:26:57;2.90;99.90
51615;DHT22;37695;52.960;6.188;2023-03-05T03:29:22;2.90;99.90
51615;DHT22;37695;52.960;6.188;2023-03-05T03:31:48;2.90;99.90
51615;DHT22;37695;52.960;6.188;2023-03-05T03:34:15;3.00;99.90
51615;DHT22;37695;52.960;6.188;2023-03-05T03:36:42;3.00;99.90
51615;DHT22;37695;52.960;6.188;2023-03-05T03:39:08;3.00;99.90
51615;DHT22;37695;52.960;6.188;2023-03-05T03:41:40;3.00;99.90
51615;DHT22;37695;52.960;6.188;2023-03-05T03:44:06;3.00;99.90
51615;DHT22;37695;52.960;6.188;2023-03-05T03:46:33;3.00;99.90
51615;DHT22;37695;52.960;6.188;2023-03-05T03:48:59;3.10;99.90
51615;DHT22;37695;52.960;6.188;2023-03-05T03:51:25;3.00;99.90
51615;DHT22;37695;52.960;6.188;2023-03-05T03:53:51;3.00;99.90
51615;DHT22;37695;52.960;6.188;2023-03-05T03:56:16;3.00;99.90
51615;DHT22;37695;52.960;6.188;2023-03-05T03:58:42;3.10;99.90
51615;DHT22;37695;52.960;6.188;2023-03-05T04:01:08;3.10;99.90
51615;DHT22;37695;52.960;6.188;2023-03-05T04:03:33;3.00;99.90
51615;DHT22;37695;52.960;6.188;2023-03-05T04:05:59;3.10;99.90
51615;DHT22;37695;52.960;6.188;2023-03-05T04:08:25;3.10;99.90
51615;DHT22;37695;52.960;6.188;2023-03-05T04:10:50;3.10;99.90
51615;DHT22;37695;52.960;6.188;2023-03-05T04:13:16;3.10;99.90
51615;DHT22;37695;52.960;6.188;2023-03-05T04:15:41;3.10;99.90
51615;DHT22;37695;52.960;6.188;2023-03-05T04:18:08;3.00;99.90
51615;DHT22;37695;52.960;6.188;2023-03-05T04:20:33;3.00;99.90
51615;DHT22;37695;52.960;6.188;2023-03-05T04:22:59;3.00;99.90
51615;DHT22;37695;52.960;6.188;2023-03-05T04:25:24;3.00;99.90
51615;DHT22;37695;52.960;6.188;2023-03-05T04:27:50;2.90;99.90
51615;DHT22;37695;52.960;6.188;2023-03-05T04:30:15;2.90;99.90
51615;DHT22;37695;52.960;6.188;2023-03-05T04:32:41;2.80;99.90
51615;DHT22;37695;52.960;6.188;2023-03-05T04:35:07;2.80;99.90
51615;DHT22;37695;52.960;6.188;2023-03-05T04:37:33;2.80;99.90
51615;DHT22;37695;52.960;6.188;2023-03-05T04:39:58;2.80;99.90
51615;DHT22;37695;52.960;6.188;2023-03-05T04:42:24;2.80;99.90
51615;DHT22;37695;52.960;6.188;2023-03-05T04:44:50;2.90;99.90
51615;DHT22;37695;52.960;6.188;2023-03-05T04:47:16;2.90;99.90
51615;DHT22;37695;52.960;6.188;2023-03-05T04:49:42;2.90;99.90
51615;DHT22;37695;52.960;6.188;2023-03-05T04:52:10;2.90;99.90
51615;DHT22;37695;52.960;6.188;2023-03-05T04:54:35;3.00;99.90
51615;DHT22;37695;52.960;6.188;2023-03-05T04:57:01;3.00;99.90
51615;DHT22;37695;52.960;6.188;2023-03-05T04:59:26;3.00;99.90
51615;DHT22;37695;52.960;6.188;2023-03-05T05:01:52;3.10;99.90
51615;DHT22;37695;52.960;6.188;2023-03-05T05:04:17;3.10;99.90
51615;DHT22;37695;52.960;6.188;2023-03-05T05:06:43;3.20;99.90
51615;DHT22;37695;52.960;6.188;2023-03-05T05:09:09;3.10;99.90
51615;DHT22;37695;52.960;6.188;2023-03-05T05:11:34;3.10;99.90
51615;DHT22;37695;52.960;6.188;2023-03-05T05:14:00;3.10;99.90
51615;DHT22;37695;52.960;6.188;2023-03-05T05:16:25;3.10;99.90
51615;DHT22;37695;52.960;6.188;2023-03-05T05:18:51;3.10;99.90
51615;DHT22;37695;52.960;6.188;2023-03-05T05:21:17;3.10;99.90
51615;DHT22;37695;52.960;6.188;2023-03-05T05:23:45;3.10;99.90
51615;DHT22;37695;52.960;6.188;2023-03-05T05:26:11;3.10;99.90
51615;DHT22;37695;52.960;6.188;2023-03-05T05:28:39;3.10;99.90
51615;DHT22;37695;52.960;6.188;2023-03-05T05:31:12;3.20;99.90
51615;DHT22;37695;52.960;6.188;2023-03-05T05:33:37;3.10;99.90
51615;DHT22;37695;52.960;6.188;2023-03-05T05:36:04;3.10;99.90
51615;DHT22;37695;52.960;6.188;2023-03-05T05:38:31;3.10;99.90
51615;DHT22;37695;52.960;6.188;2023-03-05T05:41:08;3.10;99.90
51615;DHT22;37695;52.960;6.188;2023-03-05T05:43:34;3.10;99.90
51615;DHT22;37695;52.960;6.188;2023-03-05T05:46:01;3.10;99.90
51615;DHT22;37695;52.960;6.188;2023-03-05T05:48:28;3.10;99.90
51615;DHT22;37695;52.960;6.188;2023-03-05T05:50:54;3.10;99.90
51615;DHT22;37695;52.960;6.188;2023-03-05T05:53:20;3.10;99.90
51615;DHT22;37695;52.960;6.188;2023-03-05T05:55:45;3.10;99.90
51615;DHT22;37695;52.960;6.188;2023-03-05T05:58:11;3.10;99.90
51615;DHT22;37695;52.960;6.188;2023-03-05T06:00:37;3.10;99.90
51615;DHT22;37695;52.960;6.188;2023-03-05T06:03:03;3.10;99.90
51615;DHT22;37695;52.960;6.188;2023-03-05T06:05:28;3.00;99.90
51615;DHT22;37695;52.960;6.188;2023-03-05T06:07:54;3.00;99.90
51615;DHT22;37695;52.960;6.188;2023-03-05T06:10:20;3.00;99.90
51615;DHT22;37695;52.960;6.188;2023-03-05T06:12:45;2.90;99.90
51615;DHT22;37695;52.960;6.188;2023-03-05T06:15:11;2.80;99.90
51615;DHT22;37695;52.960;6.188;2023-03-05T06:17:36;2.80;99.90
51615;DHT22;37695;52.960;6.188;2023-03-05T06:20:04;2.80;99.90
51615;DHT22;37695;52.960;6.188;2023-03-05T06:22:30;2.80;99.90
51615;DHT22;37695;52.960;6.188;2023-03-05T06:24:56;2.80;99.90
51615;DHT22;37695;52.960;6.188;2023-03-05T06:27:22;2.80;99.90
51615;DHT22;37695;52.960;6.188;2023-03-05T06:29:51;2.80;99.90
51615;DHT22;37695;52.960;6.188;2023-03-05T06:32:17;2.70;99.90
51615;DHT22;37695;52.960;6.188;2023-03-05T06:34:42;2.70;99.90
51615;DHT22;37695;52.960;6.188;2023-03-05T06:37:08;2.70;99.90
51615;DHT22;37695;52.960;6.188;2023-03-05T06:39:33;2.70;99.90
51615;DHT22;37695;52.960;6.188;2023-03-05T06:41:59;2.60;99.90
51615;DHT22;37695;52.960;6.188;2023-03-05T06:44:24;2.70;99.90
51615;DHT22;37695;52.960;6.188;2023-03-05T06:46:50;2.60;99.90
51615;DHT22;37695;52.960;6.188;2023-03-05T06:49:15;2.60;99.90
51615;DHT22;37695;52.960;6.188;2023-03-05T06:51:41;2.60;99.90
51615;DHT22;37695;52.960;6.188;2023-03-05T06:54:09;2.60;99.90
51615;DHT22;37695;52.960;6.188;2023-03-05T06:56:39;2.60;99.90
51615;DHT22;37695;52.960;6.188;2023-03-05T06:59:05;2.70;99.90
51615;DHT22;37695;52.960;6.188;2023-03-05T07:01:31;2.70;99.90
51615;DHT22;37695;52.960;6.188;2023-03-05T07:03:57;2.70;99.90
51615;DHT22;37695;52.960;6.188;2023-03-05T07:06:25;2.70;99.90
51615;DHT22;37695;52.960;6.188;2023-03-05T07:08:55;2.80;99.90
51615;DHT22;37695;52.960;6.188;2023-03-05T07:11:21;2.80;99.90
51615;DHT22;37695;52.960;6.188;2023-03-05T07:13:47;2.80;99.90
51615;DHT22;37695;52.960;6.188;2023-03-05T07:16:16;2.80;99.90
51615;DHT22;37695;52.960;6.188;2023-03-05T07:18:42;2.90;99.90
51615;DHT22;37695;52.960;6.188;2023-03-05T07:21:08;2.90;99.90
51615;DHT22;37695;52.960;6.188;2023-03-05T07:23:35;2.90;99.90
51615;DHT22;37695;52.960;6.188;2023-03-05T07:26:03;2.90;99.90
51615;DHT22;37695;52.960;6.188;2023-03-05T07:28:29;2.90;99.90
51615;DHT22;37695;52.960;6.188;2023-03-05T07:31:00;2.90;99.90
51615;DHT22;37695;52.960;6.188;2023-03-05T07:33:26;3.00;99.90
51615;DHT22;37695;52.960;6.188;2023-03-05T07:35:52;3.00;99.90
51615;DHT22;37695;52.960;6.188;2023-03-05T07:38:18;3.00;99.90
51615;DHT22;37695;52.960;6.188;2023-03-05T07:40:44;3.00;99.90
51615;DHT22;37695;52.960;6.188;2023-03-05T07:43:10;3.00;99.90
51615;DHT22;37695;52.960;6.188;2023-03-05T07:45:39;3.00;99.90
51615;DHT22;37695;52.960;6.188;2023-03-05T07:48:05;3.10;99.90
51615;DHT22;37695;52.960;6.188;2023-03-05T07:50:31;3.20;99.90
51615;DHT22;37695;52.960;6.188;2023-03-05T07:52:58;3.20;99.90
51615;DHT22;37695;52.960;6.188;2023-03-05T07:55:23;3.20;99.90
51615;DHT22;37695;52.960;6.188;2023-03-05T07:57:49;3.30;99.90
51615;DHT22;37695;52.960;6.188;2023-03-05T08:00:14;3.40;99.90
51615;DHT22;37695;52.960;6.188;2023-03-05T08:02:40;3.40;99.90
51615;DHT22;37695;52.960;6.188;2023-03-05T08:05:06;3.50;99.90
51615;DHT22;37695;52.960;6.188;2023-03-05T08:07:31;3.50;99.90
51615;DHT22;37695;52.960;6.188;2023-03-05T08:09:57;3.60;99.90
51615;DHT22;37695;52.960;6.188;2023-03-05T08:12:22;3.70;99.90
51615;DHT22;37695;52.960;6.188;2023-03-05T08:14:48;3.70;99.90
51615;DHT22;37695;52.960;6.188;2023-03-05T08:17:15;3.80;99.90
51615;DHT22;37695;52.960;6.188;2023-03-05T08:19:41;3.90;99.90
51615;DHT22;37695;52.960;6.188;2023-03-05T08:22:06;4.00;99.90
51615;DHT22;37695;52.960;6.188;2023-03-05T08:24:32;4.10;99.90
51615;DHT22;37695;52.960;6.188;2023-03-05T08:26:58;4.20;99.90
51615;DHT22;37695;52.960;6.188;2023-03-05T08:29:24;4.20;99.90
51615;DHT22;37695;52.960;6.188;2023-03-05T08:31:50;4.30;99.90
51615;DHT22;37695;52.960;6.188;2023-03-05T08:34:18;4.40;99.90
51615;DHT22;37695;52.960;6.188;2023-03-05T08:36:44;4.50;99.90
51615;DHT22;37695;52.960;6.188;2023-03-05T08:39:09;4.60;99.90
51615;DHT22;37695;52.960;6.188;2023-03-05T08:41:35;4.70;99.90
51615;DHT22;37695;52.960;6.188;2023-03-05T08:44:01;4.80;99.90
51615;DHT22;37695;52.960;6.188;2023-03-05T08:46:26;4.90;99.90
51615;DHT22;37695;52.960;6.188;2023-03-05T08:48:52;5.10;99.90
51615;DHT22;37695;52.960;6.188;2023-03-05T08:51:20;5.20;99.90
51615;DHT22;37695;52.960;6.188;2023-03-05T08:53:47;5.30;99.90
51615;DHT22;37695;52.960;6.188;2023-03-05T08:56:13;5.40;99.90
51615;DHT22;37695;52.960;6.188;2023-03-05T08:58:39;5.50;99.90
51615;DHT22;37695;52.960;6.188;2023-03-05T09:01:05;5.60;99.90
51615;DHT22;37695;52.960;6.188;2023-03-05T09:03:31;5.70;99.90
51615;DHT22;37695;52.960;6.188;2023-03-05T09:06:01;5.70;99.90
51615;DHT22;37695;52.960;6.188;2023-03-05T09:08:28;5.80;99.90
51615;DHT22;37695;52.960;6.188;2023-03-05T09:10:54;5.80;99.90
51615;DHT22;37695;52.960;6.188;2023-03-05T09:13:19;5.80;99.90
51615;DHT22;37695;52.960;6.188;2023-03-05T09:15:46;5.80;99.90
51615;DHT22;37695;52.960;6.188;2023-03-05T09:18:17;5.90;99.90
51615;DHT22;37695;52.960;6.188;2023-03-05T09:20:43;5.90;99.90
51615;DHT22;37695;52.960;6.188;2023-03-05T09:23:08;6.00;99.90
51615;DHT22;37695;52.960;6.188;2023-03-05T09:25:34;6.10;99.90
51615;DHT22;37695;52.960;6.188;2023-03-05T09:27:59;6.20;99.90
51615;DHT22;37695;52.960;6.188;2023-03-05T09:30:25;6.20;99.90
51615;DHT22;37695;52.960;6.188;2023-03-05T09:32:50;6.30;99.90
51615;DHT22;37695;52.960;6.188;2023-03-05T09:35:16;6.30;99.90
51615;DHT22;37695;52.960;6.188;2023-03-05T09:37:41;6.30;99.90
51615;DHT22;37695;52.960;6.188;2023-03-05T09:40:12;6.40;99.90
51615;DHT22;37695;52.960;6.188;2023-03-05T09:43:00;6.40;99.90
51615;DHT22;37695;52.960;6.188;2023-03-05T09:48:19;6.50;99.90
51615;DHT22;37695;52.960;6.188;2023-03-05T09:51:07;6.40;99.90
51615;DHT22;37695;52.960;6.188;2023-03-05T09:53:47;6.40;99.90
51615;DHT22;37695;52.960;6.188;2023-03-05T09:56:27;6.40;99.90
51615;DHT22;37695;52.960;6.188;2023-03-05T09:58:58;6.50;99.90
51615;DHT22;37695;52.960;6.188;2023-03-05T10:01:38;6.70;99.90
51615;DHT22;37695;52.960;6.188;2023-03-05T10:04:17;6.70;99.90
51615;DHT22;37695;52.960;6.188;2023-03-05T10:07:03;6.70;99.90
51615;DHT22;37695;52.960;6.188;2023-03-05T10:10:01;6.80;99.90
51615;DHT22;37695;52.960;6.188;2023-03-05T10:12:50;6.80;99.90
51615;DHT22;37695;52.960;6.188;2023-03-05T10:15:36;6.90;99.90
51615;DHT22;37695;52.960;6.188;2023-03-05T10:18:26;7.00;99.90
51615;DHT22;37695;52.960;6.188;2023-03-05T10:21:19;7.10;99.90
51615;DHT22;37695;52.960;6.188;2023-03-05T10:24:02;7.20;99.90
51615;DHT22;37695;52.960;6.188;2023-03-05T10:32:24;7.00;99.90
51615;DHT22;37695;52.960;6.188;2023-03-05T10:45:51;6.60;99.90
51615;DHT22;37695;52.960;6.188;2023-03-05T10:48:38;6.50;99.90
51615;DHT22;37695;52.960;6.188;2023-03-05T10:51:12;6.50;99.90
51615;DHT22;37695;52.960;6.188;2023-03-05T10:56:11;6.50;99.90
51615;DHT22;37695;52.960;6.188;2023-03-05T10:58:37;6.50;99.90
51615;DHT22;37695;52.960;6.188;2023-03-05T11:01:23;6.40;99.90
51615;DHT22;37695;52.960;6.188;2023-03-05T11:04:05;6.20;99.90
51615;DHT22;37695;52.960;6.188;2023-03-05T11:06:32;6.30;99.90
51615;DHT22;37695;52.960;6.188;2023-03-05T11:09:22;6.40;99.90
51615;DHT22;37695;52.960;6.188;2023-03-05T11:14:28;6.50;99.90
51615;DHT22;37695;52.960;6.188;2023-03-05T11:16:59;6.50;99.90
51615;DHT22;37695;52.960;6.188;2023-03-05T11:19:32;6.60;99.90
51615;DHT22;37695;52.960;6.188;2023-03-05T11:22:20;6.70;99.90
51615;DHT22;37695;52.960;6.188;2023-03-05T11:25:13;6.80;99.90
51615;DHT22;37695;52.960;6.188;2023-03-05T11:27:55;6.80;99.90
51615;DHT22;37695;52.960;6.188;2023-03-05T11:30:29;6.90;99.90
51615;DHT22;37695;52.960;6.188;2023-03-05T11:33:18;6.90;99.90
51615;DHT22;37695;52.960;6.188;2023-03-05T11:35:46;7.00;99.90
51615;DHT22;37695;52.960;6.188;2023-03-05T11:38:23;7.20;99.90
51615;DHT22;37695;52.960;6.188;2023-03-05T11:40:50;7.30;99.90
51615;DHT22;37695;52.960;6.188;2023-03-05T11:43:22;7.40;99.90
51615;DHT22;37695;52.960;6.188;2023-03-05T11:45:50;7.40;99.90
51615;DHT22;37695;52.960;6.188;2023-03-05T11:48:24;7.30;99.90
51615;DHT22;37695;52.960;6.188;2023-03-05T11:50:54;7.10;99.90
51615;DHT22;37695;52.960;6.188;2023-03-05T11:53:27;7.00;99.90
51615;DHT22;37695;52.960;6.188;2023-03-05T11:55:58;6.80;99.90
51615;DHT22;37695;52.960;6.188;2023-03-05T11:58:38;6.70;99.90
51615;DHT22;37695;52.960;6.188;2023-03-05T12:01:18;6.50;99.90
51615;DHT22;37695;52.960;6.188;2023-03-05T12:03:44;6.60;99.90
51615;DHT22;37695;52.960;6.188;2023-03-05T12:06:22;6.50;99.90
51615;DHT22;37695;52.960;6.188;2023-03-05T12:08:54;6.60;99.90
51615;DHT22;37695;52.960;6.188;2023-03-05T12:11:25;6.60;99.90
51615;DHT22;37695;52.960;6.188;2023-03-05T12:14:00;6.70;99.90
51615;DHT22;37695;52.960;6.188;2023-03-05T12:16:45;6.80;99.90
51615;DHT22;37695;52.960;6.188;2023-03-05T12:19:35;7.00;99.90
51615;DHT22;37695;52.960;6.188;2023-03-05T12:22:10;7.10;99.90
51615;DHT22;37695;52.960;6.188;2023-03-05T12:24:39;7.30;99.90
51615;DHT22;37695;52.960;6.188;2023-03-05T12:27:07;7.40;99.90
51615;DHT22;37695;52.960;6.188;2023-03-05T12:29:48;7.60;99.90
51615;DHT22;37695;52.960;6.188;2023-03-05T12:35:20;7.50;99.90
51615;DHT22;37695;52.960;6.188;2023-03-05T12:40:19;7.40;99.90
51615;DHT22;37695;52.960;6.188;2023-03-05T12:42:50;7.30;99.90
51615;DHT22;37695;52.960;6.188;2023-03-05T12:47:45;7.30;99.90
51615;DHT22;37695;52.960;6.188;2023-03-05T12:55:53;7.50;99.90
51615;DHT22;37695;52.960;6.188;2023-03-05T12:58:37;7.50;99.90
51615;DHT22;37695;52.960;6.188;2023-03-05T13:03:42;7.50;99.90
51615;DHT22;37695;52.960;6.188;2023-03-05T13:06:27;7.50;99.90
51615;DHT22;37695;52.960;6.188;2023-03-05T13:08:59;7.50;99.90
51615;DHT22;37695;52.960;6.188;2023-03-05T13:11:27;7.50;99.90
51615;DHT22;37695;52.960;6.188;2023-03-05T13:13:54;7.60;99.90
51615;DHT22;37695;52.960;6.188;2023-03-05T13:16:26;7.60;99.90
51615;DHT22;37695;52.960;6.188;2023-03-05T13:18:55;7.50;99.90
51615;DHT22;37695;52.960;6.188;2023-03-05T13:21:26;7.30;99.90
51615;DHT22;37695;52.960;6.188;2023-03-05T13:23:55;7.20;99.90
51615;DHT22;37695;52.960;6.188;2023-03-05T13:26:36;7.00;99.90
51615;DHT22;37695;52.960;6.188;2023-03-05T13:29:12;6.90;99.90
51615;DHT22;37695;52.960;6.188;2023-03-05T13:31:46;6.80;99.90
51615;DHT22;37695;52.960;6.188;2023-03-05T13:34:24;6.90;99.90
51615;DHT22;37695;52.960;6.188;2023-03-05T13:36:53;6.90;99.90
51615;DHT22;37695;52.960;6.188;2023-03-05T13:39:23;6.90;99.90
51615;DHT22;37695;52.960;6.188;2023-03-05T13:44:23;6.70;99.90
51615;DHT22;37695;52.960;6.188;2023-03-05T13:46:49;6.70;99.90
51615;DHT22;37695;52.960;6.188;2023-03-05T13:49:24;6.60;99.90
51615;DHT22;37695;52.960;6.188;2023-03-05T13:51:55;6.60;99.90
51615;DHT22;37695;52.960;6.188;2023-03-05T13:54:23;6.50;99.90
51615;DHT22;37695;52.960;6.188;2023-03-05T13:56:56;6.50;99.90
51615;DHT22;37695;52.960;6.188;2023-03-05T13:59:25;6.50;99.90
51615;DHT22;37695;52.960;6.188;2023-03-05T14:01:53;6.50;99.90
51615;DHT22;37695;52.960;6.188;2023-03-05T14:09:30;6.50;99.90
51615;DHT22;37695;52.960;6.188;2023-03-05T14:12:00;6.40;99.90
51615;DHT22;37695;52.960;6.188;2023-03-05T14:14:27;6.40;99.90
51615;DHT22;37695;52.960;6.188;2023-03-05T14:16:53;6.50;99.90
51615;DHT22;37695;52.960;6.188;2023-03-05T14:19:35;6.50;99.90
51615;DHT22;37695;52.960;6.188;2023-03-05T14:22:01;6.50;99.90
51615;DHT22;37695;52.960;6.188;2023-03-05T14:24:28;6.60;99.90
51615;DHT22;37695;52.960;6.188;2023-03-05T14:26:58;6.70;99.90
51615;DHT22;37695;52.960;6.188;2023-03-05T14:29:26;6.80;99.90
51615;DHT22;37695;52.960;6.188;2023-03-05T14:32:05;6.80;99.90
51615;DHT22;37695;52.960;6.188;2023-03-05T14:34:36;6.90;99.90
51615;DHT22;37695;52.960;6.188;2023-03-05T14:37:05;6.90;99.90
51615;DHT22;37695;52.960;6.188;2023-03-05T14:39:50;6.90;99.90
51615;DHT22;37695;52.960;6.188;2023-03-05T14:42:34;6.80;99.90
51615;DHT22;37695;52.960;6.188;2023-03-05T14:45:18;6.80;99.90
51615;DHT22;37695;52.960;6.188;2023-03-05T14:47:44;6.80;99.90
51615;DHT22;37695;52.960;6.188;2023-03-05T14:50:25;6.80;99.90
51615;DHT22;37695;52.960;6.188;2023-03-05T14:52:55;6.80;99.90
51615;DHT22;37695;52.960;6.188;2023-03-05T14:55:24;6.90;99.90
51615;DHT22;37695;52.960;6.188;2023-03-05T14:57:51;6.90;99.90
51615;DHT22;37695;52.960;6.188;2023-03-05T15:00:22;6.90;99.90
51615;DHT22;37695;52.960;6.188;2023-03-05T15:02:47;6.90;99.90
51615;DHT22;37695;52.960;6.188;2023-03-05T15:05:14;7.00;99.90
51615;DHT22;37695;52.960;6.188;2023-03-05T15:07:41;7.20;99.90
51615;DHT22;37695;52.960;6.188;2023-03-05T15:10:08;7.30;99.90
51615;DHT22;37695;52.960;6.188;2023-03-05T15:12:34;7.30;99.90
51615;DHT22;37695;52.960;6.188;2023-03-05T15:14:59;7.40;99.90
51615;DHT22;37695;52.960;6.188;2023-03-05T15:17:37;7.40;99.90
51615;DHT22;37695;52.960;6.188;2023-03-05T15:20:04;7.20;99.90
51615;DHT22;37695;52.960;6.188;2023-03-05T15:22:33;6.90;99.90
51615;DHT22;37695;52.960;6.188;2023-03-05T15:24:59;7.10;99.90
51615;DHT22;37695;52.960;6.188;2023-03-05T15:27:24;6.90;99.90
51615;DHT22;37695;52.960;6.188;2023-03-05T15:29:50;6.80;99.90
51615;DHT22;37695;52.960;6.188;2023-03-05T15:32:15;6.70;99.90
51615;DHT22;37695;52.960;6.188;2023-03-05T15:34:41;6.60;99.90
51615;DHT22;37695;52.960;6.188;2023-03-05T15:37:07;6.70;99.90
51615;DHT22;37695;52.960;6.188;2023-03-05T15:39:32;6.70;99.90
51615;DHT22;37695;52.960;6.188;2023-03-05T15:41:58;6.70;99.90
51615;DHT22;37695;52.960;6.188;2023-03-05T15:44:24;6.60;99.90
51615;DHT22;37695;52.960;6.188;2023-03-05T15:46:49;6.50;99.90
51615;DHT22;37695;52.960;6.188;2023-03-05T15:49:15;6.50;99.90
51615;DHT22;37695;52.960;6.188;2023-03-05T15:51:41;6.50;99.90
51615;DHT22;37695;52.960;6.188;2023-03-05T15:54:06;6.40;99.90
51615;DHT22;37695;52.960;6.188;2023-03-05T15:56:32;6.40;99.90
51615;DHT22;37695;52.960;6.188;2023-03-05T15:58:57;6.40;99.90
51615;DHT22;37695;52.960;6.188;2023-03-05T16:01:23;6.30;99.90
51615;DHT22;37695;52.960;6.188;2023-03-05T16:03:50;6.30;99.90
51615;DHT22;37695;52.960;6.188;2023-03-05T16:06:16;6.30;99.90
51615;DHT22;37695;52.960;6.188;2023-03-05T16:08:46;6.20;99.90
51615;DHT22;37695;52.960;6.188;2023-03-05T16:11:12;6.20;99.90
51615;DHT22;37695;52.960;6.188;2023-03-05T16:13:39;6.20;99.90
51615;DHT22;37695;52.960;6.188;2023-03-05T16:16:06;6.10;99.90
51615;DHT22;37695;52.960;6.188;2023-03-05T16:18:33;6.00;99.90
51615;DHT22;37695;52.960;6.188;2023-03-05T16:21:00;6.00;99.90
51615;DHT22;37695;52.960;6.188;2023-03-05T16:23:26;6.00;99.90
51615;DHT22;37695;52.960;6.188;2023-03-05T16:25:52;6.00;99.90
51615;DHT22;37695;52.960;6.188;2023-03-05T16:28:17;6.00;99.90
51615;DHT22;37695;52.960;6.188;2023-03-05T16:30:43;6.00;99.90
51615;DHT22;37695;52.960;6.188;2023-03-05T16:33:08;6.20;99.90
51615;DHT22;37695;52.960;6.188;2023-03-05T16:35:34;6.30;99.90
51615;DHT22;37695;52.960;6.188;2023-03-05T16:38:00;6.50;99.90
51615;DHT22;37695;52.960;6.188;2023-03-05T16:40:26;6.70;99.90
51615;DHT22;37695;52.960;6.188;2023-03-05T16:42:52;6.90;99.90
51615;DHT22;37695;52.960;6.188;2023-03-05T16:45:17;7.00;99.90
51615;DHT22;37695;52.960;6.188;2023-03-05T16:47:43;7.10;99.90